Tomah, WI

5:48 PM CST on December 22, 2014 (GMT -0600)
Water Mill | Change Station
CLOSE
Current Station
Personal Weather Station
Location: Tomah, WI
Elevation: 950 ft
Nearby Weather Stations

Elev 950 ft 44.05 °N, 90.46 °W | Updated 3 seconds ago

Rain
Rain
33.4 °F
Feels Like 33 °F
N
0.0
Wind Variable Wind from East
Gusts 0.0 mph

Today
High -- | Low -- °F
--% Chance of Precip.
Yesterday
High -- | Low -- °F
Precip. -- in
7:33 AM 4:27 PM
New Moon, 1% visible
Pressure 29.70 in
Visibility 2.5 miles
Clouds Overcast 700 ft
Windchill 33 °F
Dew Point 33 °F
Humidity 100%
Rainfall 0.01 in
Snow Depth Not available.
UV 0.0 out of 12
Pollen .10 out of 12
Air Quality Not available.
Flu Activity Not available.
METAR KVOK 222258Z 09009KT 2 1/2SM -SN BR OVC007 01/01 A2966 RMK AO2A SLP056

More Conditions Fewer Conditions

Pressure 29.70 in
Visibility 2.5 miles
Clouds Overcast 700 ft
Windchill 33 °F
Dew Point 33 °F
Humidity 100%
Rainfall 0.01 in
Snow Depth Not available.
UV 0.0 out of 12
Pollen .10 out of 12
Air Quality Not available.
Flu Activity Not available.
METAR KVOK 222258Z 09009KT 2 1/2SM -SN BR OVC007 01/01 A2966 RMK AO2A SLP056

More Conditions Fewer Conditions

Nowcast | as of 4:01 PM CST on December 22, 2014

A broad area of light rain and drizzle will continue to spread north across the area through 6 PM. By 6 PM the leading edge is expected to be moving north of Medford Wisconsin. Some wet snow may be mixed in at times...especially across the higher terrain areas of southeast Minnesota and north of Highway 10 across central Wisconsin. Any snow accumulations would be mainly a dusting...while rain amounts from 4 PM to 6 PM will be a trace up to a tenth of an inch. The heavy rain amounts will be south and east of La Crosse. If driving...be alert wet roads and the possibility of slippery spots.

×

10-Day Weather Forecast

Almanac

Astronomy

Dec. 22, 2014 Rise Set
Actual Time
Civil Twilight
Nautical Twilight
Astronomical Twilight
Moon
Length of Visible Light
Length of Day
Tomorrow will be .
, % of the Moon is Illuminated

Today's Extremes

State Highs State Lows

Community

WunderPhotos

Upload Photos

1,779,723 photos uploaded!

WunderBlogs® & News

Nearby

Air Quality

  Air Quality AQ Index Pollutant
Not available.

Snow Depth

Station Depth Elevation

Earthquake Activity

City Distance Mag. Time & Date
Minimum magnitude displayed is 2.5.

Coastal Water Temperatures

Place Temperature

Nearby Weather Stations